Nearby METAR Reports

 

KAVP - Avoca/Wilkes B., Pennsylvania, USA
Distance from station: N 16mi, 25km
Updated: 08/02/2021 2:54pm
Few Clouds
Few Clouds
 Wind from NNW
Wind: NNW 13 mph , 20 km/h
Temperature: 73°F , 23°C
Dew Point: 50°F , 10°C
Humidity: 44%
Barometer: 30.04 inHg , 1017.3 hPa
Clouds: Few Clouds
Visibility: 10 miles , 16 km
Cloud details: Few Clouds 6000 ft
2021/08/02 18:54 KAVP 021854Z 33011KT 10SM FEW060 23/10 A3004 RMK AO2 SLP165 T02330100
KMPO - Mt. Pocono, Pennsylvania, USA
Distance from station: E 20mi, 33km
Updated: 08/02/2021 2:53pm
Few Clouds
Few Clouds
 Wind from WNW
Wind: WNW 15 mph , 24 km/h, Gust: 23 mph , 37 km/h
Temperature: 70°F , 21°C
Dew Point: 52°F , 11°C
Humidity: 53%
Barometer: 30.05 inHg , 1017.6 hPa
Clouds: Few Clouds
Visibility: 10 miles , 16 km
Cloud details: Few Clouds 4500 ft
2021/08/02 18:53 KMPO 021853Z AUTO 30013G20KT 10SM FEW045 21/11 A3005 RMK AO2 SLP170 T02110111
 
KABE - Allentown, Pennsylvania, USA
Distance from station: SSE 36mi, 58km
Updated: 08/02/2021 2:51pm
Few Clouds
Few Clouds
 Wind from N
Wind: N 10 mph , 17 km/h, Gust: 17 mph , 28 km/h
Temperature: 79°F , 26°C
Dew Point: 55°F , 13°C
Humidity: 45%
Barometer: 30.00 inHg , 1015.9 hPa
Clouds: Few Clouds
Visibility: 10 miles , 16 km
Cloud details: Few Clouds 5500 ft
2021/08/02 18:51 KABE 021851Z AUTO 36009G15KT 10SM FEW055 26/13 A3000 RMK AO2 SLP159 T02560128
KXLL - Allentown Queen, Pennsylvania, USA
Distance from station: SSE 41mi, 65km
Updated: 08/02/2021 2:55pm
Partly cloudy
Partly cloudy
 Wind from N
Wind: N 12 mph , 19 km/h, Gust: 16 mph , 26 km/h
Temperature: 77°F , 25°C
Dew Point: 55°F , 13°C
Humidity: 47%
Barometer: 30.02 inHg , 1016.6 hPa
Clouds: Partly cloudy
Visibility: 10 miles , 16 km
Cloud details: Partly cloudy 5000 ft
2021/08/02 18:55 KXLL 021855Z AUTO 35010G14KT 10SM SCT050 25/13 A3002 RMK AO2